KGNT/GNT METAR and TAF weather

Enter ICAO airport designator
Station Type Date Time Source
KGNT METAR 2022/11/30 16:15 UTC NOAA

KGNT 301615Z AUTO 34003KT 10SM CLR M04/M13 A3026 RMK AO2 T10391127


Station Type Date Time Source
KGNT Decoded METAR 2022/11/30 16:15 UTC NOAA

GRANTS-MILAN MUNICIPAL AIRPORT , NM, United States (KGNT) 35-10N 107-54W 1987M
Nov 30, 2022 - 11:15 AM EST / 2022.11.30 1615 UTC
Wind: from the NNW (340 degrees) at 3 MPH (3 KT):0
Visibility: 10 mile(s):0
Sky conditions: clear
Temperature: 25.0 F (-3.9 C)
Dew Point: 9.1 F (-12.7 C)
Relative Humidity: 50%
Pressure (altimeter): 30.26 in. Hg (1024 hPa)
ob: KGNT 301615Z AUTO 34003KT 10SM CLR M04/M13 A3026 RMK AO2 T10391127
cycle: 16

Station Type Date Time Source
KGNT TAF UTC NOAA

Error!

Example: see airport list